sensor_id;sensor_type;location;lat;lon;timestamp;temperature;humidity
66422;DHT22;53228;51.380;0.098;2024-02-14T00:00:51;10.20;99.90
66422;DHT22;53228;51.380;0.098;2024-02-14T00:03:19;10.30;99.90
66422;DHT22;53228;51.380;0.098;2024-02-14T00:05:49;10.20;99.90
66422;DHT22;53228;51.380;0.098;2024-02-14T00:08:16;10.20;99.90
66422;DHT22;53228;51.380;0.098;2024-02-14T00:10:44;10.20;99.90
66422;DHT22;53228;51.380;0.098;2024-02-14T00:13:12;11.30;99.90
66422;DHT22;53228;51.380;0.098;2024-02-14T00:15:40;10.30;99.90
66422;DHT22;53228;51.380;0.098;2024-02-14T00:18:09;10.30;99.90
66422;DHT22;53228;51.380;0.098;2024-02-14T00:20:37;10.20;99.90
66422;DHT22;53228;51.380;0.098;2024-02-14T00:23:06;10.30;99.90
66422;DHT22;53228;51.380;0.098;2024-02-14T00:25:34;9.90;99.90
66422;DHT22;53228;51.380;0.098;2024-02-14T00:28:01;10.30;99.90
66422;DHT22;53228;51.380;0.098;2024-02-14T00:30:31;10.20;99.90
66422;DHT22;53228;51.380;0.098;2024-02-14T00:33:10;10.30;99.90
66422;DHT22;53228;51.380;0.098;2024-02-14T00:35:38;10.30;99.90
66422;DHT22;53228;51.380;0.098;2024-02-14T00:38:06;10.30;99.90
66422;DHT22;53228;51.380;0.098;2024-02-14T00:40:34;10.30;99.90
66422;DHT22;53228;51.380;0.098;2024-02-14T00:43:02;10.30;99.90
66422;DHT22;53228;51.380;0.098;2024-02-14T00:45:29;11.60;99.90
66422;DHT22;53228;51.380;0.098;2024-02-14T00:47:57;10.90;99.90
66422;DHT22;53228;51.380;0.098;2024-02-14T00:55:21;10.40;99.90
66422;DHT22;53228;51.380;0.098;2024-02-14T00:57:49;10.10;99.90
66422;DHT22;53228;51.380;0.098;2024-02-14T01:00:17;10.40;99.90
66422;DHT22;53228;51.380;0.098;2024-02-14T01:02:45;10.50;99.90
66422;DHT22;53228;51.380;0.098;2024-02-14T01:05:13;9.90;99.90
66422;DHT22;53228;51.380;0.098;2024-02-14T01:07:41;10.30;99.90
66422;DHT22;53228;51.380;0.098;2024-02-14T01:10:09;10.20;99.90
66422;DHT22;53228;51.380;0.098;2024-02-14T01:12:37;9.80;99.90
66422;DHT22;53228;51.380;0.098;2024-02-14T01:15:05;10.30;99.90
66422;DHT22;53228;51.380;0.098;2024-02-14T01:17:34;10.30;99.90
66422;DHT22;53228;51.380;0.098;2024-02-14T01:20:04;10.30;99.90
66422;DHT22;53228;51.380;0.098;2024-02-14T01:22:32;10.00;99.90
66422;DHT22;53228;51.380;0.098;2024-02-14T01:25:05;10.20;99.90
66422;DHT22;53228;51.380;0.098;2024-02-14T01:27:33;10.20;99.90
66422;DHT22;53228;51.380;0.098;2024-02-14T01:30:01;10.10;99.90
66422;DHT22;53228;51.380;0.098;2024-02-14T01:32:31;9.70;99.90
66422;DHT22;53228;51.380;0.098;2024-02-14T01:34:59;10.20;99.90
66422;DHT22;53228;51.380;0.098;2024-02-14T01:37:28;10.20;99.90
66422;DHT22;53228;51.380;0.098;2024-02-14T01:39:56;10.20;99.90
66422;DHT22;53228;51.380;0.098;2024-02-14T01:42:24;10.20;99.90
66422;DHT22;53228;51.380;0.098;2024-02-14T01:44:52;10.20;99.90
66422;DHT22;53228;51.380;0.098;2024-02-14T01:47:21;10.20;99.90
66422;DHT22;53228;51.380;0.098;2024-02-14T01:49:49;9.30;99.90
66422;DHT22;53228;51.380;0.098;2024-02-14T01:52:16;10.20;99.90
66422;DHT22;53228;51.380;0.098;2024-02-14T01:54:45;10.20;99.90
66422;DHT22;53228;51.380;0.098;2024-02-14T01:57:13;10.30;99.90
66422;DHT22;53228;51.380;0.098;2024-02-14T01:59:41;10.70;99.90
66422;DHT22;53228;51.380;0.098;2024-02-14T02:02:08;10.30;99.90
66422;DHT22;53228;51.380;0.098;2024-02-14T02:04:37;10.30;99.90
66422;DHT22;53228;51.380;0.098;2024-02-14T02:07:04;10.30;99.90
66422;DHT22;53228;51.380;0.098;2024-02-14T02:09:32;10.30;99.90
66422;DHT22;53228;51.380;0.098;2024-02-14T02:12:01;10.30;99.90
66422;DHT22;53228;51.380;0.098;2024-02-14T02:14:49;10.30;99.90
66422;DHT22;53228;51.380;0.098;2024-02-14T02:17:37;10.30;99.90
66422;DHT22;53228;51.380;0.098;2024-02-14T02:20:24;10.40;99.90
66422;DHT22;53228;51.380;0.098;2024-02-14T02:22:52;10.20;99.90
66422;DHT22;53228;51.380;0.098;2024-02-14T02:25:41;10.30;99.90
66422;DHT22;53228;51.380;0.098;2024-02-14T02:28:28;10.30;99.90
66422;DHT22;53228;51.380;0.098;2024-02-14T02:30:56;10.20;99.90
66422;DHT22;53228;51.380;0.098;2024-02-14T02:33:24;10.20;99.90
66422;DHT22;53228;51.380;0.098;2024-02-14T02:35:52;10.10;99.90
66422;DHT22;53228;51.380;0.098;2024-02-14T02:38:39;10.20;99.90
66422;DHT22;53228;51.380;0.098;2024-02-14T02:41:27;10.20;99.90
66422;DHT22;53228;51.380;0.098;2024-02-14T02:44:13;10.20;99.90
66422;DHT22;53228;51.380;0.098;2024-02-14T02:47:03;10.20;99.90
66422;DHT22;53228;51.380;0.098;2024-02-14T02:49:51;10.20;99.90
66422;DHT22;53228;51.380;0.098;2024-02-14T02:52:39;10.20;99.90
66422;DHT22;53228;51.380;0.098;2024-02-14T02:55:17;10.20;99.90
66422;DHT22;53228;51.380;0.098;2024-02-14T02:57:47;10.20;99.90
66422;DHT22;53228;51.380;0.098;2024-02-14T03:00:15;10.20;99.90
66422;DHT22;53228;51.380;0.098;2024-02-14T03:02:48;10.20;99.90
66422;DHT22;53228;51.380;0.098;2024-02-14T03:05:36;10.20;99.90
66422;DHT22;53228;51.380;0.098;2024-02-14T03:08:18;10.10;99.90
66422;DHT22;53228;51.380;0.098;2024-02-14T03:11:07;10.20;99.90
66422;DHT22;53228;51.380;0.098;2024-02-14T03:13:55;10.50;99.90
66422;DHT22;53228;51.380;0.098;2024-02-14T03:16:43;10.10;99.90
66422;DHT22;53228;51.380;0.098;2024-02-14T03:19:10;10.20;99.90
66422;DHT22;53228;51.380;0.098;2024-02-14T03:21:38;10.20;99.90
66422;DHT22;53228;51.380;0.098;2024-02-14T03:24:06;10.50;99.90
66422;DHT22;53228;51.380;0.098;2024-02-14T03:26:37;10.10;99.90
66422;DHT22;53228;51.380;0.098;2024-02-14T03:29:05;10.20;99.90
66422;DHT22;53228;51.380;0.098;2024-02-14T03:31:34;10.20;99.90
66422;DHT22;53228;51.380;0.098;2024-02-14T03:34:02;10.30;99.90
66422;DHT22;53228;51.380;0.098;2024-02-14T03:36:32;10.20;99.90
66422;DHT22;53228;51.380;0.098;2024-02-14T03:39:01;10.20;99.90
66422;DHT22;53228;51.380;0.098;2024-02-14T03:41:32;10.00;99.90
66422;DHT22;53228;51.380;0.098;2024-02-14T03:44:00;10.20;99.90
66422;DHT22;53228;51.380;0.098;2024-02-14T03:46:31;10.20;99.90
66422;DHT22;53228;51.380;0.098;2024-02-14T03:48:59;10.20;99.90
66422;DHT22;53228;51.380;0.098;2024-02-14T03:51:27;9.70;99.90
66422;DHT22;53228;51.380;0.098;2024-02-14T03:53:55;10.20;99.90
66422;DHT22;53228;51.380;0.098;2024-02-14T03:56:22;10.20;99.90
66422;DHT22;53228;51.380;0.098;2024-02-14T03:58:50;10.20;99.90
66422;DHT22;53228;51.380;0.098;2024-02-14T04:01:18;10.30;99.90
66422;DHT22;53228;51.380;0.098;2024-02-14T04:03:47;10.20;99.90
66422;DHT22;53228;51.380;0.098;2024-02-14T04:06:16;8.60;99.90
66422;DHT22;53228;51.380;0.098;2024-02-14T04:08:44;9.80;99.90
66422;DHT22;53228;51.380;0.098;2024-02-14T04:11:12;10.30;99.90
66422;DHT22;53228;51.380;0.098;2024-02-14T04:13:41;10.30;99.90
66422;DHT22;53228;51.380;0.098;2024-02-14T04:16:08;10.30;99.90
66422;DHT22;53228;51.380;0.098;2024-02-14T04:18:47;10.80;99.90
66422;DHT22;53228;51.380;0.098;2024-02-14T04:21:15;10.30;99.90
66422;DHT22;53228;51.380;0.098;2024-02-14T04:23:43;10.30;99.90
66422;DHT22;53228;51.380;0.098;2024-02-14T04:26:21;10.20;99.90
66422;DHT22;53228;51.380;0.098;2024-02-14T04:28:48;10.30;99.90
66422;DHT22;53228;51.380;0.098;2024-02-14T04:31:16;10.30;99.90
66422;DHT22;53228;51.380;0.098;2024-02-14T04:33:56;10.30;99.90
66422;DHT22;53228;51.380;0.098;2024-02-14T04:36:24;10.30;99.90
66422;DHT22;53228;51.380;0.098;2024-02-14T04:38:52;10.40;99.90
66422;DHT22;53228;51.380;0.098;2024-02-14T04:41:20;10.40;99.90
66422;DHT22;53228;51.380;0.098;2024-02-14T04:43:48;10.40;99.90
66422;DHT22;53228;51.380;0.098;2024-02-14T04:46:16;10.40;99.90
66422;DHT22;53228;51.380;0.098;2024-02-14T04:48:44;9.70;99.90
66422;DHT22;53228;51.380;0.098;2024-02-14T04:51:12;10.40;99.90
66422;DHT22;53228;51.380;0.098;2024-02-14T04:53:40;10.40;99.90
66422;DHT22;53228;51.380;0.098;2024-02-14T04:56:08;10.40;99.90
66422;DHT22;53228;51.380;0.098;2024-02-14T04:58:35;10.50;99.90
66422;DHT22;53228;51.380;0.098;2024-02-14T05:01:03;10.50;99.90
66422;DHT22;53228;51.380;0.098;2024-02-14T05:03:31;10.50;99.90
66422;DHT22;53228;51.380;0.098;2024-02-14T05:05:59;10.50;99.90
66422;DHT22;53228;51.380;0.098;2024-02-14T05:08:30;10.50;99.90
66422;DHT22;53228;51.380;0.098;2024-02-14T05:10:59;9.60;99.90
66422;DHT22;53228;51.380;0.098;2024-02-14T05:13:26;10.50;99.90
66422;DHT22;53228;51.380;0.098;2024-02-14T05:15:54;10.50;99.90
66422;DHT22;53228;51.380;0.098;2024-02-14T05:18:22;10.50;99.90
66422;DHT22;53228;51.380;0.098;2024-02-14T05:20:50;10.50;99.90
66422;DHT22;53228;51.380;0.098;2024-02-14T05:23:18;10.80;99.90
66422;DHT22;53228;51.380;0.098;2024-02-14T05:25:46;10.60;99.90
66422;DHT22;53228;51.380;0.098;2024-02-14T05:28:14;11.90;99.90
66422;DHT22;53228;51.380;0.098;2024-02-14T05:30:42;10.50;99.90
66422;DHT22;53228;51.380;0.098;2024-02-14T05:33:18;10.60;99.90
66422;DHT22;53228;51.380;0.098;2024-02-14T05:35:49;10.60;99.90
66422;DHT22;53228;51.380;0.098;2024-02-14T05:38:17;11.00;99.90
66422;DHT22;53228;51.380;0.098;2024-02-14T05:40:48;10.60;99.90
66422;DHT22;53228;51.380;0.098;2024-02-14T05:43:16;10.60;99.90
66422;DHT22;53228;51.380;0.098;2024-02-14T05:45:49;10.60;99.90
66422;DHT22;53228;51.380;0.098;2024-02-14T05:48:18;10.40;99.90
66422;DHT22;53228;51.380;0.098;2024-02-14T05:50:46;10.60;99.90
66422;DHT22;53228;51.380;0.098;2024-02-14T05:53:14;10.60;99.90
66422;DHT22;53228;51.380;0.098;2024-02-14T05:55:42;10.60;99.90
66422;DHT22;53228;51.380;0.098;2024-02-14T05:58:09;10.60;99.90
66422;DHT22;53228;51.380;0.098;2024-02-14T06:00:38;10.60;99.90
66422;DHT22;53228;51.380;0.098;2024-02-14T06:03:07;10.60;99.90
66422;DHT22;53228;51.380;0.098;2024-02-14T06:05:35;10.60;99.90
66422;DHT22;53228;51.380;0.098;2024-02-14T06:08:03;10.50;99.90
66422;DHT22;53228;51.380;0.098;2024-02-14T06:10:31;10.50;99.90
66422;DHT22;53228;51.380;0.098;2024-02-14T06:12:59;10.80;99.90
66422;DHT22;53228;51.380;0.098;2024-02-14T06:15:26;10.50;99.90
66422;DHT22;53228;51.380;0.098;2024-02-14T06:17:54;10.40;99.90
66422;DHT22;53228;51.380;0.098;2024-02-14T06:20:22;10.80;99.90
66422;DHT22;53228;51.380;0.098;2024-02-14T06:25:31;9.20;99.90
66422;DHT22;53228;51.380;0.098;2024-02-14T06:28:05;10.20;99.90
66422;DHT22;53228;51.380;0.098;2024-02-14T06:30:32;9.40;99.90
66422;DHT22;53228;51.380;0.098;2024-02-14T06:33:00;10.10;99.90
66422;DHT22;53228;51.380;0.098;2024-02-14T06:35:30;9.80;99.90
66422;DHT22;53228;51.380;0.098;2024-02-14T06:37:58;10.20;99.90
66422;DHT22;53228;51.380;0.098;2024-02-14T06:40:32;10.20;99.90
66422;DHT22;53228;51.380;0.098;2024-02-14T06:43:00;12.00;99.90
66422;DHT22;53228;51.380;0.098;2024-02-14T06:45:29;10.20;99.90
66422;DHT22;53228;51.380;0.098;2024-02-14T06:48:05;10.20;99.90
66422;DHT22;53228;51.380;0.098;2024-02-14T06:50:33;10.10;99.90
66422;DHT22;53228;51.380;0.098;2024-02-14T06:53:01;10.10;99.90
66422;DHT22;53228;51.380;0.098;2024-02-14T06:55:28;9.90;99.90
66422;DHT22;53228;51.380;0.098;2024-02-14T06:57:59;10.10;99.90
66422;DHT22;53228;51.380;0.098;2024-02-14T07:00:27;10.20;99.90
66422;DHT22;53228;51.380;0.098;2024-02-14T07:02:58;10.20;99.90
66422;DHT22;53228;51.380;0.098;2024-02-14T07:05:26;10.50;99.90
66422;DHT22;53228;51.380;0.098;2024-02-14T07:07:56;10.30;99.90
66422;DHT22;53228;51.380;0.098;2024-02-14T07:10:23;10.40;99.90
66422;DHT22;53228;51.380;0.098;2024-02-14T07:12:51;10.40;99.90
66422;DHT22;53228;51.380;0.098;2024-02-14T07:15:19;10.40;99.90
66422;DHT22;53228;51.380;0.098;2024-02-14T07:17:47;8.80;99.90
66422;DHT22;53228;51.380;0.098;2024-02-14T07:20:15;10.30;99.90
66422;DHT22;53228;51.380;0.098;2024-02-14T07:22:44;10.30;99.90
66422;DHT22;53228;51.380;0.098;2024-02-14T07:25:15;10.30;99.90
66422;DHT22;53228;51.380;0.098;2024-02-14T07:27:42;10.30;99.90
66422;DHT22;53228;51.380;0.098;2024-02-14T07:30:11;10.40;99.90
66422;DHT22;53228;51.380;0.098;2024-02-14T07:32:38;10.40;99.90
66422;DHT22;53228;51.380;0.098;2024-02-14T07:35:07;10.40;99.90
66422;DHT22;53228;51.380;0.098;2024-02-14T07:37:35;11.00;99.90
66422;DHT22;53228;51.380;0.098;2024-02-14T07:40:03;10.60;99.90
66422;DHT22;53228;51.380;0.098;2024-02-14T07:42:33;10.40;99.90
66422;DHT22;53228;51.380;0.098;2024-02-14T07:45:00;10.40;99.90
66422;DHT22;53228;51.380;0.098;2024-02-14T07:47:32;10.40;99.90
66422;DHT22;53228;51.380;0.098;2024-02-14T07:50:00;10.40;99.90
66422;DHT22;53228;51.380;0.098;2024-02-14T07:52:28;10.40;99.90
66422;DHT22;53228;51.380;0.098;2024-02-14T07:54:55;10.40;99.90
66422;DHT22;53228;51.380;0.098;2024-02-14T07:57:23;11.30;99.90
66422;DHT22;53228;51.380;0.098;2024-02-14T07:59:52;10.50;99.90
66422;DHT22;53228;51.380;0.098;2024-02-14T08:02:20;10.50;99.90
66422;DHT22;53228;51.380;0.098;2024-02-14T08:04:47;10.30;99.90
66422;DHT22;53228;51.380;0.098;2024-02-14T08:07:18;11.10;99.90
66422;DHT22;53228;51.380;0.098;2024-02-14T08:09:46;12.00;99.90
66422;DHT22;53228;51.380;0.098;2024-02-14T08:12:13;10.60;99.90
66422;DHT22;53228;51.380;0.098;2024-02-14T08:14:41;10.70;99.90
66422;DHT22;53228;51.380;0.098;2024-02-14T08:17:09;10.40;99.90
66422;DHT22;53228;51.380;0.098;2024-02-14T08:19:37;10.70;99.90
66422;DHT22;53228;51.380;0.098;2024-02-14T08:22:05;10.70;99.90
66422;DHT22;53228;51.380;0.098;2024-02-14T08:24:33;10.80;99.90
66422;DHT22;53228;51.380;0.098;2024-02-14T08:27:01;10.40;99.90
66422;DHT22;53228;51.380;0.098;2024-02-14T08:29:29;10.80;99.90
66422;DHT22;53228;51.380;0.098;2024-02-14T08:31:56;10.80;99.90
66422;DHT22;53228;51.380;0.098;2024-02-14T08:34:24;10.80;99.90
66422;DHT22;53228;51.380;0.098;2024-02-14T08:36:52;10.50;99.90
66422;DHT22;53228;51.380;0.098;2024-02-14T08:39:20;10.90;99.90
66422;DHT22;53228;51.380;0.098;2024-02-14T08:41:48;10.90;99.90
66422;DHT22;53228;51.380;0.098;2024-02-14T08:46:46;11.00;99.90
66422;DHT22;53228;51.380;0.098;2024-02-14T08:49:15;11.00;99.90
66422;DHT22;53228;51.380;0.098;2024-02-14T08:51:43;11.00;99.90
66422;DHT22;53228;51.380;0.098;2024-02-14T08:54:13;10.60;99.90
66422;DHT22;53228;51.380;0.098;2024-02-14T08:56:43;11.10;99.90
66422;DHT22;53228;51.380;0.098;2024-02-14T08:59:11;11.10;99.90
66422;DHT22;53228;51.380;0.098;2024-02-14T09:01:38;11.10;99.90
66422;DHT22;53228;51.380;0.098;2024-02-14T09:04:06;11.10;99.90
66422;DHT22;53228;51.380;0.098;2024-02-14T09:06:34;11.20;99.90
66422;DHT22;53228;51.380;0.098;2024-02-14T09:09:02;11.30;99.90
66422;DHT22;53228;51.380;0.098;2024-02-14T09:11:31;11.30;99.90
66422;DHT22;53228;51.380;0.098;2024-02-14T09:13:59;11.30;99.90
66422;DHT22;53228;51.380;0.098;2024-02-14T09:16:34;11.30;99.90
66422;DHT22;53228;51.380;0.098;2024-02-14T09:19:02;11.30;99.90
66422;DHT22;53228;51.380;0.098;2024-02-14T09:21:31;11.30;99.90
66422;DHT22;53228;51.380;0.098;2024-02-14T09:24:01;11.30;99.90
66422;DHT22;53228;51.380;0.098;2024-02-14T09:26:29;11.30;99.90
66422;DHT22;53228;51.380;0.098;2024-02-14T09:28:57;11.40;99.90
66422;DHT22;53228;51.380;0.098;2024-02-14T09:31:25;11.10;99.90
66422;DHT22;53228;51.380;0.098;2024-02-14T09:33:52;11.40;99.90
66422;DHT22;53228;51.380;0.098;2024-02-14T09:36:24;11.40;99.90
66422;DHT22;53228;51.380;0.098;2024-02-14T09:38:52;11.90;99.90
66422;DHT22;53228;51.380;0.098;2024-02-14T09:41:37;11.40;99.90
66422;DHT22;53228;51.380;0.098;2024-02-14T09:44:08;11.40;99.90
66422;DHT22;53228;51.380;0.098;2024-02-14T09:46:36;11.40;99.90
66422;DHT22;53228;51.380;0.098;2024-02-14T09:49:07;11.90;99.90
66422;DHT22;53228;51.380;0.098;2024-02-14T09:51:36;11.50;99.90
66422;DHT22;53228;51.380;0.098;2024-02-14T09:54:05;11.50;99.90
66422;DHT22;53228;51.380;0.098;2024-02-14T09:56:47;12.00;99.90
66422;DHT22;53228;51.380;0.098;2024-02-14T09:59:17;11.60;99.90
66422;DHT22;53228;51.380;0.098;2024-02-14T10:01:45;11.90;99.90
66422;DHT22;53228;51.380;0.098;2024-02-14T10:04:14;11.70;99.90
66422;DHT22;53228;51.380;0.098;2024-02-14T10:06:41;11.70;99.90
66422;DHT22;53228;51.380;0.098;2024-02-14T10:11:37;11.90;99.90
66422;DHT22;53228;51.380;0.098;2024-02-14T10:14:05;12.00;99.90
66422;DHT22;53228;51.380;0.098;2024-02-14T10:16:36;12.00;99.90
66422;DHT22;53228;51.380;0.098;2024-02-14T10:19:04;12.00;99.90
66422;DHT22;53228;51.380;0.098;2024-02-14T10:21:35;12.10;99.90
66422;DHT22;53228;51.380;0.098;2024-02-14T10:24:03;12.00;99.90
66422;DHT22;53228;51.380;0.098;2024-02-14T10:26:31;12.10;99.90
66422;DHT22;53228;51.380;0.098;2024-02-14T10:28:59;12.10;99.90
66422;DHT22;53228;51.380;0.098;2024-02-14T10:31:27;12.20;99.90
66422;DHT22;53228;51.380;0.098;2024-02-14T10:33:55;12.20;99.90
66422;DHT22;53228;51.380;0.098;2024-02-14T10:36:26;12.30;99.90
66422;DHT22;53228;51.380;0.098;2024-02-14T10:38:56;12.30;99.90
66422;DHT22;53228;51.380;0.098;2024-02-14T10:41:25;12.40;99.90
66422;DHT22;53228;51.380;0.098;2024-02-14T10:43:53;12.50;99.90
66422;DHT22;53228;51.380;0.098;2024-02-14T10:46:22;12.50;99.90
66422;DHT22;53228;51.380;0.098;2024-02-14T10:49:05;12.50;99.90
66422;DHT22;53228;51.380;0.098;2024-02-14T10:51:38;12.60;99.90
66422;DHT22;53228;51.380;0.098;2024-02-14T10:54:11;12.60;99.90
66422;DHT22;53228;51.380;0.098;2024-02-14T10:56:41;12.60;99.90
66422;DHT22;53228;51.380;0.098;2024-02-14T10:59:14;12.60;99.90
66422;DHT22;53228;51.380;0.098;2024-02-14T11:01:43;12.70;99.90
66422;DHT22;53228;51.380;0.098;2024-02-14T11:04:11;12.70;99.90
66422;DHT22;53228;51.380;0.098;2024-02-14T11:06:51;12.80;99.90
66422;DHT22;53228;51.380;0.098;2024-02-14T11:09:21;12.90;99.90
66422;DHT22;53228;51.380;0.098;2024-02-14T11:11:48;12.90;99.90
66422;DHT22;53228;51.380;0.098;2024-02-14T11:14:19;13.00;99.90
66422;DHT22;53228;51.380;0.098;2024-02-14T11:16:47;13.00;99.90
66422;DHT22;53228;51.380;0.098;2024-02-14T11:19:15;13.00;99.90
66422;DHT22;53228;51.380;0.098;2024-02-14T11:21:47;13.00;99.90
66422;DHT22;53228;51.380;0.098;2024-02-14T11:24:16;13.70;99.90
66422;DHT22;53228;51.380;0.098;2024-02-14T11:26:48;13.10;99.90
66422;DHT22;53228;51.380;0.098;2024-02-14T11:29:20;13.10;99.90
66422;DHT22;53228;51.380;0.098;2024-02-14T11:31:59;13.10;99.90
66422;DHT22;53228;51.380;0.098;2024-02-14T11:34:29;13.10;99.90
66422;DHT22;53228;51.380;0.098;2024-02-14T11:37:04;13.10;99.90
66422;DHT22;53228;51.380;0.098;2024-02-14T11:39:33;12.50;99.90
66422;DHT22;53228;51.380;0.098;2024-02-14T11:42:02;13.10;99.90
66422;DHT22;53228;51.380;0.098;2024-02-14T11:44:30;13.10;99.90
66422;DHT22;53228;51.380;0.098;2024-02-14T11:46:58;13.10;99.90
66422;DHT22;53228;51.380;0.098;2024-02-14T11:49:26;13.10;99.90
66422;DHT22;53228;51.380;0.098;2024-02-14T11:51:54;13.10;99.90
66422;DHT22;53228;51.380;0.098;2024-02-14T11:54:22;13.10;99.90
66422;DHT22;53228;51.380;0.098;2024-02-14T11:56:50;13.10;99.90
66422;DHT22;53228;51.380;0.098;2024-02-14T11:59:18;13.20;99.90
66422;DHT22;53228;51.380;0.098;2024-02-14T12:01:47;13.20;99.90
66422;DHT22;53228;51.380;0.098;2024-02-14T12:04:16;13.20;99.90
66422;DHT22;53228;51.380;0.098;2024-02-14T12:06:45;13.20;99.90
66422;DHT22;53228;51.380;0.098;2024-02-14T12:09:13;13.20;99.90
66422;DHT22;53228;51.380;0.098;2024-02-14T12:11:51;13.20;99.90
66422;DHT22;53228;51.380;0.098;2024-02-14T12:14:18;13.70;99.90
66422;DHT22;53228;51.380;0.098;2024-02-14T12:16:56;13.30;99.90
66422;DHT22;53228;51.380;0.098;2024-02-14T12:19:27;13.30;99.90
66422;DHT22;53228;51.380;0.098;2024-02-14T12:22:00;14.30;99.90
66422;DHT22;53228;51.380;0.098;2024-02-14T12:24:28;12.00;99.90
66422;DHT22;53228;51.380;0.098;2024-02-14T12:26:56;13.50;99.90
66422;DHT22;53228;51.380;0.098;2024-02-14T12:29:24;13.50;99.90
66422;DHT22;53228;51.380;0.098;2024-02-14T12:32:04;13.50;99.90
66422;DHT22;53228;51.380;0.098;2024-02-14T12:34:33;13.40;99.90
66422;DHT22;53228;51.380;0.098;2024-02-14T12:37:01;13.40;99.90
66422;DHT22;53228;51.380;0.098;2024-02-14T12:39:30;13.60;99.90
66422;DHT22;53228;51.380;0.098;2024-02-14T12:41:58;13.40;99.90
66422;DHT22;53228;51.380;0.098;2024-02-14T12:44:27;13.30;99.90
66422;DHT22;53228;51.380;0.098;2024-02-14T12:46:55;13.40;99.90
66422;DHT22;53228;51.380;0.098;2024-02-14T12:49:23;13.40;99.90
66422;DHT22;53228;51.380;0.098;2024-02-14T12:51:53;13.50;99.90
66422;DHT22;53228;51.380;0.098;2024-02-14T12:54:21;13.60;99.90
66422;DHT22;53228;51.380;0.098;2024-02-14T12:56:49;13.70;99.90
66422;DHT22;53228;51.380;0.098;2024-02-14T12:59:18;13.80;99.90
66422;DHT22;53228;51.380;0.098;2024-02-14T13:01:45;13.90;99.90
66422;DHT22;53228;51.380;0.098;2024-02-14T13:04:15;14.00;99.90
66422;DHT22;53228;51.380;0.098;2024-02-14T13:06:44;14.00;99.90
66422;DHT22;53228;51.380;0.098;2024-02-14T13:09:12;14.00;99.90
66422;DHT22;53228;51.380;0.098;2024-02-14T13:11:43;14.00;99.90
66422;DHT22;53228;51.380;0.098;2024-02-14T13:14:11;14.10;99.90
66422;DHT22;53228;51.380;0.098;2024-02-14T13:16:38;14.20;99.90
66422;DHT22;53228;51.380;0.098;2024-02-14T13:19:06;14.20;99.90
66422;DHT22;53228;51.380;0.098;2024-02-14T13:24:03;14.40;99.90
66422;DHT22;53228;51.380;0.098;2024-02-14T13:26:31;14.50;99.90
66422;DHT22;53228;51.380;0.098;2024-02-14T13:28:59;14.50;99.90
66422;DHT22;53228;51.380;0.098;2024-02-14T13:31:27;14.50;99.90
66422;DHT22;53228;51.380;0.098;2024-02-14T13:33:55;14.60;99.90
66422;DHT22;53228;51.380;0.098;2024-02-14T13:36:23;14.60;99.90
66422;DHT22;53228;51.380;0.098;2024-02-14T13:38:51;14.60;99.90
66422;DHT22;53228;51.380;0.098;2024-02-14T13:41:19;14.60;99.90
66422;DHT22;53228;51.380;0.098;2024-02-14T13:43:46;13.00;99.90
66422;DHT22;53228;51.380;0.098;2024-02-14T13:46:15;14.70;99.90
66422;DHT22;53228;51.380;0.098;2024-02-14T13:48:42;14.70;99.90
66422;DHT22;53228;51.380;0.098;2024-02-14T13:51:10;14.70;99.90
66422;DHT22;53228;51.380;0.098;2024-02-14T13:53:38;14.70;99.90
66422;DHT22;53228;51.380;0.098;2024-02-14T13:56:07;14.70;99.90
66422;DHT22;53228;51.380;0.098;2024-02-14T13:58:35;14.70;99.90
66422;DHT22;53228;51.380;0.098;2024-02-14T14:01:02;14.70;99.90
66422;DHT22;53228;51.380;0.098;2024-02-14T14:03:31;14.60;99.90
66422;DHT22;53228;51.380;0.098;2024-02-14T14:06:00;14.60;99.90
66422;DHT22;53228;51.380;0.098;2024-02-14T14:08:28;14.60;99.90
66422;DHT22;53228;51.380;0.098;2024-02-14T14:10:56;14.50;99.90
66422;DHT22;53228;51.380;0.098;2024-02-14T14:13:24;14.50;99.90
66422;DHT22;53228;51.380;0.098;2024-02-14T14:15:57;14.40;99.90
66422;DHT22;53228;51.380;0.098;2024-02-14T14:18:24;14.40;99.90
66422;DHT22;53228;51.380;0.098;2024-02-14T14:20:52;14.30;99.90
66422;DHT22;53228;51.380;0.098;2024-02-14T14:23:20;14.30;99.90
66422;DHT22;53228;51.380;0.098;2024-02-14T14:25:48;14.30;99.90
66422;DHT22;53228;51.380;0.098;2024-02-14T14:28:15;14.30;99.90
66422;DHT22;53228;51.380;0.098;2024-02-14T14:30:44;14.30;99.90
66422;DHT22;53228;51.380;0.098;2024-02-14T14:33:12;14.30;99.90
66422;DHT22;53228;51.380;0.098;2024-02-14T14:35:45;14.30;99.90
66422;DHT22;53228;51.380;0.098;2024-02-14T14:38:13;14.50;99.90
66422;DHT22;53228;51.380;0.098;2024-02-14T14:40:40;14.30;99.90
66422;DHT22;53228;51.380;0.098;2024-02-14T14:43:08;14.30;99.90
66422;DHT22;53228;51.380;0.098;2024-02-14T14:45:36;14.20;99.90
66422;DHT22;53228;51.380;0.098;2024-02-14T14:48:05;14.20;99.90
66422;DHT22;53228;51.380;0.098;2024-02-14T14:50:35;14.20;99.90
66422;DHT22;53228;51.380;0.098;2024-02-14T14:53:04;14.10;99.90
66422;DHT22;53228;51.380;0.098;2024-02-14T14:55:55;14.10;99.90
66422;DHT22;53228;51.380;0.098;2024-02-14T14:58:24;14.00;99.90
66422;DHT22;53228;51.380;0.098;2024-02-14T15:00:56;14.00;99.90
66422;DHT22;53228;51.380;0.098;2024-02-14T15:03:26;14.00;99.90
66422;DHT22;53228;51.380;0.098;2024-02-14T15:05:54;13.90;99.90
66422;DHT22;53228;51.380;0.098;2024-02-14T15:08:22;13.90;99.90
66422;DHT22;53228;51.380;0.098;2024-02-14T15:10:55;13.90;99.90
66422;DHT22;53228;51.380;0.098;2024-02-14T15:13:24;13.90;99.90
66422;DHT22;53228;51.380;0.098;2024-02-14T15:15:52;13.80;99.90
66422;DHT22;53228;51.380;0.098;2024-02-14T15:18:20;13.80;99.90
66422;DHT22;53228;51.380;0.098;2024-02-14T15:20:48;13.70;99.90
66422;DHT22;53228;51.380;0.098;2024-02-14T15:23:16;13.70;99.90
66422;DHT22;53228;51.380;0.098;2024-02-14T15:25:43;13.70;99.90
66422;DHT22;53228;51.380;0.098;2024-02-14T15:28:11;13.70;99.90
66422;DHT22;53228;51.380;0.098;2024-02-14T15:30:41;13.60;99.90
66422;DHT22;53228;51.380;0.098;2024-02-14T15:33:27;13.60;99.90
66422;DHT22;53228;51.380;0.098;2024-02-14T15:35:57;13.60;99.90
66422;DHT22;53228;51.380;0.098;2024-02-14T15:38:26;13.60;99.90
66422;DHT22;53228;51.380;0.098;2024-02-14T15:40:54;13.50;99.90
66422;DHT22;53228;51.380;0.098;2024-02-14T15:43:29;13.50;99.90
66422;DHT22;53228;51.380;0.098;2024-02-14T15:45:56;13.50;99.90
66422;DHT22;53228;51.380;0.098;2024-02-14T15:48:26;13.50;99.90
66422;DHT22;53228;51.380;0.098;2024-02-14T15:50:56;13.50;99.90
66422;DHT22;53228;51.380;0.098;2024-02-14T15:53:25;13.60;99.90
66422;DHT22;53228;51.380;0.098;2024-02-14T15:55:54;13.40;99.90
66422;DHT22;53228;51.380;0.098;2024-02-14T15:58:22;13.40;99.90
66422;DHT22;53228;51.380;0.098;2024-02-14T16:00:50;13.00;99.90
66422;DHT22;53228;51.380;0.098;2024-02-14T16:03:18;12.90;99.90